Time,TemperatureF,DewpointF,PressureIn,WindDirection,WindDirectionDegrees,WindSpeedMPH,WindSpeedGustMPH,Humidity,HourlyPrecipIn,Conditions,Clouds,dailyrainin,SoftwareType,DateUTC
2013-03-14 00:00:00,42.2,23.4,30.15,NW,322,6.0,7.0,47,0.00,,---,0.00,VWS V14.01,2013-03-14 04:00:00,
2013-03-14 00:01:00,42.2,23.4,30.15,NW,322,6.0,7.0,47,0.00,,---,0.00,VWS V14.01,2013-03-14 04:01:00,
2013-03-14 00:15:00,41.5,23.3,30.15,WNW,287,1.0,6.0,48,0.00,,---,0.00,VWS V14.01,2013-03-14 04:15:00,
2013-03-14 00:30:00,40.9,23.2,30.16,WNW,302,2.0,4.0,49,0.00,,---,0.00,VWS V14.01,2013-03-14 04:30:00,
2013-03-14 00:45:00,40.4,22.8,30.16,NW,319,2.0,4.0,49,0.00,,---,0.00,VWS V14.01,2013-03-14 04:45:00,
2013-03-14 01:00:00,39.9,22.8,30.15,WNW,302,1.0,4.0,50,0.00,,---,0.00,VWS V14.01,2013-03-14 05:00:00,
2013-03-14 01:01:00,39.9,22.8,30.15,WNW,302,1.0,4.0,50,0.00,,---,0.00,VWS V14.01,2013-03-14 05:01:00,
2013-03-14 01:15:00,39.4,22.8,30.15,NW,316,1.0,4.0,51,0.00,,---,0.00,VWS V14.01,2013-03-14 05:15:00,
2013-03-14 01:30:00,39.1,22.5,30.16,NW,316,0.0,5.0,51,0.00,,---,0.00,VWS V14.01,2013-03-14 05:30:00,
2013-03-14 01:45:00,38.7,22.6,30.16,WNW,300,1.0,4.0,52,0.00,,---,0.00,VWS V14.01,2013-03-14 05:45:00,
2013-03-14 02:00:00,38.1,22.9,30.16,WNW,291,0.0,5.0,54,0.00,,---,0.00,VWS V14.01,2013-03-14 06:00:00,
2013-03-14 02:15:00,37.5,22.8,30.17,WNW,297,1.0,3.0,55,0.00,,---,0.00,VWS V14.01,2013-03-14 06:15:00,
2013-03-14 02:30:00,36.9,22.7,30.17,WNW,293,0.0,2.0,56,0.00,,---,0.00,VWS V14.01,2013-03-14 06:30:00,
2013-03-14 02:45:00,36.3,23.0,30.18,NW,314,0.0,2.0,58,0.00,,---,0.00,VWS V14.01,2013-03-14 06:45:00,
2013-03-14 03:00:00,36.0,23.1,30.18,NNW,342,1.0,2.0,59,0.00,,---,0.00,VWS V14.01,2013-03-14 07:00:00,
2013-03-14 03:15:00,35.6,23.1,30.19,NW,311,1.0,3.0,60,0.00,,---,0.00,VWS V14.01,2013-03-14 07:15:00,
2013-03-14 03:30:00,35.1,22.6,30.19,NNW,345,0.0,2.0,60,0.00,,---,0.00,VWS V14.01,2013-03-14 07:30:00,
2013-03-14 03:45:00,34.6,22.9,30.19,NW,315,1.0,2.0,62,0.00,,---,0.00,VWS V14.01,2013-03-14 07:45:00,
2013-03-14 04:00:00,34.4,22.7,30.19,NW,319,1.0,2.0,62,0.00,,---,0.00,VWS V14.01,2013-03-14 08:00:00,
2013-03-14 04:15:00,34.0,23.1,30.20,NW,319,0.0,2.0,64,0.00,,---,0.00,VWS V14.01,2013-03-14 08:15:00,
2013-03-14 04:30:00,33.4,22.9,30.20,WNW,302,1.0,2.0,65,0.00,,---,0.00,VWS V14.01,2013-03-14 08:30:00,
2013-03-14 04:45:00,33.1,22.6,30.20,NW,308,0.0,1.0,65,0.00,,---,0.00,VWS V14.01,2013-03-14 08:45:00,
2013-03-14 05:00:00,32.8,22.7,30.21,NNW,329,0.0,1.0,66,0.00,,---,0.00,VWS V14.01,2013-03-14 09:00:00,
2013-03-14 05:15:00,32.5,22.8,30.21,NW,323,1.0,2.0,67,0.00,,---,0.00,VWS V14.01,2013-03-14 09:15:00,
2013-03-14 05:30:00,32.2,22.5,30.21,NW,308,0.0,2.0,67,0.00,,---,0.00,VWS V14.01,2013-03-14 09:30:00,
2013-03-14 05:45:00,32.1,22.4,30.21,NW,311,0.0,2.0,67,0.00,,---,0.00,VWS V14.01,2013-03-14 09:45:00,
2013-03-14 06:00:00,31.8,22.5,30.22,NW,308,1.0,2.0,68,0.00,,---,0.00,VWS V14.01,2013-03-14 10:00:00,
2013-03-14 06:15:00,31.5,22.2,30.23,NW,319,1.0,2.0,68,0.00,,---,0.00,VWS V14.01,2013-03-14 10:15:00,
2013-03-14 06:30:00,31.6,22.3,30.24,WNW,297,0.0,2.0,68,0.00,,---,0.00,VWS V14.01,2013-03-14 10:30:00,
2013-03-14 06:45:00,31.4,22.1,30.24,WNW,300,0.0,2.0,68,0.00,,---,0.00,VWS V14.01,2013-03-14 10:45:00,
2013-03-14 07:00:00,30.8,21.9,30.26,WNW,299,0.0,1.0,69,0.00,,---,0.00,VWS V14.01,2013-03-14 11:00:00,
2013-03-14 07:15:00,30.4,99.9,30.26,WNW,299,0.0,1.0,70,0.00,,---,0.00,VWS V14.01,2013-03-14 11:15:00,
2013-03-14 07:30:00,30.4,99.9,30.26,NW,314,1.0,2.0,70,0.00,,---,0.00,VWS V14.01,2013-03-14 11:30:00,
2013-03-14 07:45:00,30.4,99.9,30.27,NW,314,0.0,1.0,70,0.00,,---,0.00,VWS V14.01,2013-03-14 11:45:00,
2013-03-14 08:00:00,30.4,99.9,30.27,NW,314,0.0,1.0,70,0.00,,---,0.00,VWS V14.01,2013-03-14 12:00:00,
2013-03-14 08:15:00,30.4,99.9,30.28,NW,314,1.0,1.0,70,0.00,,---,0.00,VWS V14.01,2013-03-14 12:15:00,
2013-03-14 08:30:00,30.4,99.9,30.29,WNW,285,1.0,3.0,70,0.00,,---,0.00,VWS V14.01,2013-03-14 12:30:00,
2013-03-14 08:45:00,30.4,99.9,30.29,WNW,286,0.0,3.0,70,0.00,,---,0.00,VWS V14.01,2013-03-14 12:45:00,
2013-03-14 09:00:00,30.4,99.9,30.29,NW,311,3.0,4.0,70,0.00,,---,0.00,VWS V14.01,2013-03-14 13:00:00,
2013-03-14 09:15:00,30.4,99.9,30.30,North,360,1.0,6.0,70,0.00,,---,0.00,VWS V14.01,2013-03-14 13:15:00,
2013-03-14 09:30:00,30.4,99.9,30.30,NE,50,1.0,7.0,70,0.00,,---,0.00,VWS V14.01,2013-03-14 13:30:00,
2013-03-14 09:45:00,30.4,99.9,30.29,North,8,2.0,7.0,70,0.00,,---,0.00,VWS V14.01,2013-03-14 13:45:00,
2013-03-14 10:01:00,30.4,99.9,30.30,East,82,1.0,7.0,70,0.00,,---,0.00,VWS V14.01,2013-03-14 14:01:00,
2013-03-14 10:15:00,30.4,99.9,30.30,NW,324,4.0,5.0,70,0.00,,---,0.00,VWS V14.01,2013-03-14 14:15:00,
2013-03-14 10:30:00,30.4,99.9,30.30,NW,322,5.0,7.0,70,0.00,,---,0.00,VWS V14.01,2013-03-14 14:30:00,
2013-03-14 10:45:00,30.4,99.9,30.30,NNW,327,2.0,5.0,70,0.00,,---,0.00,VWS V14.01,2013-03-14 14:45:00,
2013-03-14 11:00:00,40.9,21.7,30.30,ESE,117,1.0,4.0,46,0.00,,---,0.00,VWS V14.01,2013-03-14 15:00:00,
2013-03-14 11:15:00,41.2,21.0,30.30,NE,48,1.0,9.0,44,0.00,,---,0.00,VWS V14.01,2013-03-14 15:15:00,
2013-03-14 11:30:00,42.6,22.2,30.30,WSW,252,1.0,5.0,44,0.00,,---,0.00,VWS V14.01,2013-03-14 15:30:00,
2013-03-14 11:45:00,42.9,21.4,30.30,NW,322,3.0,9.0,42,0.00,,---,0.00,VWS V14.01,2013-03-14 15:45:00,
2013-03-14 12:00:00,43.2,21.1,30.29,NNW,342,2.0,5.0,41,0.00,,---,0.00,VWS V14.01,2013-03-14 16:00:00,
2013-03-14 12:15:00,46.0,22.5,30.29,NNW,345,2.0,5.0,39,0.00,,---,0.00,VWS V14.01,2013-03-14 16:15:00,
2013-03-14 12:30:00,46.3,21.5,30.29,NNW,328,1.0,6.0,37,0.00,,---,0.00,VWS V14.01,2013-03-14 16:30:00,
2013-03-14 12:45:00,47.2,21.0,30.28,WNW,299,2.0,8.0,35,0.00,,---,0.00,VWS V14.01,2013-03-14 16:45:00,
2013-03-14 13:00:00,48.0,21.0,30.27,ENE,58,3.0,7.0,34,0.00,,---,0.00,VWS V14.01,2013-03-14 17:00:00,
2013-03-14 13:15:00,49.5,21.6,30.27,NW,322,3.0,7.0,33,0.00,,---,0.00,VWS V14.01,2013-03-14 17:15:00,
2013-03-14 13:30:00,50.8,22.8,30.27,WSW,249,2.0,8.0,33,0.00,,---,0.00,VWS V14.01,2013-03-14 17:30:00,
2013-03-14 13:45:00,51.4,22.5,30.26,WNW,293,2.0,8.0,32,0.00,,---,0.00,VWS V14.01,2013-03-14 17:45:00,
2013-03-14 14:00:00,51.5,23.4,30.25,WNW,302,1.0,8.0,33,0.00,,---,0.00,VWS V14.01,2013-03-14 18:00:00,
2013-03-14 14:15:00,52.1,20.8,30.24,East,101,3.0,9.0,29,0.00,,---,0.00,VWS V14.01,2013-03-14 18:15:00,
2013-03-14 14:30:00,52.1,20.8,30.23,WSW,250,7.0,7.0,29,0.00,,---,0.00,VWS V14.01,2013-03-14 18:30:00,
2013-03-14 14:45:00,53.1,23.3,30.21,NW,322,2.0,9.0,31,0.00,,---,0.00,VWS V14.01,2013-03-14 18:45:00,
2013-03-14 15:00:00,53.2,21.0,30.20,NW,315,0.0,6.0,28,0.00,,---,0.00,VWS V14.01,2013-03-14 19:00:00,
2013-03-14 15:15:00,54.5,22.1,30.20,NW,318,1.0,7.0,28,0.00,,---,0.00,VWS V14.01,2013-03-14 19:15:00,
2013-03-14 15:30:00,55.1,21.7,30.20,WNW,302,3.0,9.0,27,0.00,,---,0.00,VWS V14.01,2013-03-14 19:30:00,
2013-03-14 15:46:00,54.7,22.3,30.19,NNE,16,0.0,8.0,28,0.00,,---,0.00,VWS V14.01,2013-03-14 19:46:00,
2013-03-14 16:00:00,55.0,24.2,30.18,WSW,252,4.0,7.0,30,0.00,,---,0.00,VWS V14.01,2013-03-14 20:00:00,
2013-03-14 16:15:00,55.2,23.5,30.18,WNW,299,6.0,8.0,29,0.00,,---,0.00,VWS V14.01,2013-03-14 20:15:00,
2013-03-14 16:30:00,55.4,26.0,30.18,ENE,61,3.0,7.0,32,0.00,,---,0.00,VWS V14.01,2013-03-14 20:30:00,
2013-03-14 16:45:00,55.1,24.2,30.17,South,183,1.0,7.0,30,0.00,,---,0.00,VWS V14.01,2013-03-14 20:45:00,
2013-03-14 17:00:00,55.3,24.4,30.17,WNW,296,2.0,8.0,30,0.00,,---,0.00,VWS V14.01,2013-03-14 21:00:00,
2013-03-14 17:15:00,54.6,23.8,30.16,South,172,2.0,11.0,30,0.00,,---,0.00,VWS V14.01,2013-03-14 21:15:00,
2013-03-14 17:30:00,55.6,24.7,30.17,SSE,163,2.0,8.0,30,0.00,,---,0.00,VWS V14.01,2013-03-14 21:30:00,
2013-03-14 17:45:00,55.8,24.0,30.16,WNW,291,3.0,6.0,29,0.00,,---,0.00,VWS V14.01,2013-03-14 21:45:00,
2013-03-14 18:00:00,55.6,23.9,30.17,NNW,340,2.0,9.0,29,0.00,,---,0.00,VWS V14.01,2013-03-14 22:00:00,
2013-03-14 18:15:00,55.8,23.2,30.16,NNW,345,3.0,6.0,28,0.00,,---,0.00,VWS V14.01,2013-03-14 22:15:00,
2013-03-14 18:30:00,55.0,22.5,30.17,NW,307,5.0,7.0,28,0.00,,---,0.00,VWS V14.01,2013-03-14 22:30:00,
2013-03-14 18:45:00,54.1,23.4,30.17,NNW,329,1.0,7.0,30,0.00,,---,0.00,VWS V14.01,2013-03-14 22:45:00,
2013-03-14 19:00:00,53.4,23.5,30.16,West,280,0.0,4.0,31,0.00,,---,0.00,VWS V14.01,2013-03-14 23:00:00,
2013-03-14 19:15:00,52.8,23.8,30.16,WNW,288,0.0,3.0,32,0.00,,---,0.00,VWS V14.01,2013-03-14 23:15:00,
2013-03-14 19:30:00,51.6,26.2,30.16,WNW,288,0.0,0.0,37,0.00,,---,0.00,VWS V14.01,2013-03-14 23:30:00,
2013-03-14 19:45:00,49.5,26.8,30.17,WNW,288,0.0,0.0,41,0.00,,---,0.00,VWS V14.01,2013-03-14 23:45:00,
2013-03-14 20:01:00,48.0,27.1,30.17,WNW,288,0.0,0.0,44,0.00,,---,0.00,VWS V14.01,2013-03-15 00:01:00,
2013-03-14 20:15:00,46.3,26.1,30.16,WNW,288,0.0,0.0,45,0.00,,---,0.00,VWS V14.01,2013-03-15 00:15:00,
2013-03-14 20:30:00,45.0,27.5,30.15,WNW,288,0.0,0.0,50,0.00,,---,0.00,VWS V14.01,2013-03-15 00:30:00,
2013-03-14 20:45:00,44.0,26.6,30.15,WNW,288,0.0,0.0,50,0.00,,---,0.00,VWS V14.01,2013-03-15 00:45:00,
2013-03-14 21:01:00,43.7,27.7,30.16,WNW,288,0.0,0.0,53,0.00,,---,0.00,VWS V14.01,2013-03-15 01:01:00,
2013-03-14 21:15:00,43.2,27.7,30.16,WNW,288,0.0,0.0,54,0.00,,---,0.00,VWS V14.01,2013-03-15 01:15:00,
2013-03-14 21:30:00,42.6,28.0,30.16,WNW,288,0.0,0.0,56,0.00,,---,0.00,VWS V14.01,2013-03-15 01:30:00,
2013-03-14 21:45:00,42.8,28.6,30.16,WNW,288,0.0,1.0,57,0.00,,---,0.00,VWS V14.01,2013-03-15 01:45:00,
2013-03-14 22:01:00,42.2,29.7,30.17,WNW,288,0.0,1.0,61,0.00,,---,0.00,VWS V14.01,2013-03-15 02:01:00,
2013-03-14 22:15:00,41.6,27.5,30.17,WNW,288,0.0,0.0,57,0.00,,---,0.00,VWS V14.01,2013-03-15 02:15:00,
2013-03-14 22:30:00,42.4,27.0,30.18,NE,53,0.0,1.0,54,0.00,,---,0.00,VWS V14.01,2013-03-15 02:30:00,
2013-03-14 22:45:00,43.3,27.8,30.18,NNE,32,0.0,1.0,54,0.00,,---,0.00,VWS V14.01,2013-03-15 02:45:00,
2013-03-14 23:00:00,43.3,27.8,30.18,ENE,72,0.0,1.0,54,0.00,,---,0.00,VWS V14.01,2013-03-15 03:00:00,
2013-03-14 23:15:00,43.7,28.2,30.18,NNE,17,0.0,1.0,54,0.00,,---,0.00,VWS V14.01,2013-03-15 03:15:00,
2013-03-14 23:30:00,44.0,28.4,30.18,West,278,1.0,2.0,54,0.00,,---,0.00,VWS V14.01,2013-03-15 03:30:00,
2013-03-14 23:45:00,44.0,28.4,30.18,West,273,1.0,3.0,54,0.00,,---,0.00,VWS V14.01,2013-03-15 03:45:00,